KBKD/BKD METAR and TAF weather

Enter ICAO airport designator
Station Type Date Time Source
KBKD METAR 2020/03/29 20:55 UTC NOAA

KBKD 292055Z AUTO 06004KT 10SM SCT110 21/05 A3013 RMK AO2 T02110054


Station Type Date Time Source
KBKD Decoded METAR 2020/03/29 20:55 UTC NOAA

Station name not available
Mar 29, 2020 - 04:55 PM EDT / 2020.03.29 2055 UTC
Wind: from the ENE (060 degrees) at 5 MPH (4 KT):0
Visibility: 10 mile(s):0
Sky conditions: partly cloudy
Temperature: 70.0 F (21.1 C)
Dew Point: 41.7 F (5.4 C)
Relative Humidity: 35%
Pressure (altimeter): 30.13 in. Hg (1020 hPa)
ob: KBKD 292055Z AUTO 06004KT 10SM SCT110 21/05 A3013 RMK AO2 T02110054
cycle: 21

Station Type Date Time Source
KBKD TAF UTC NOAA

Error!

Example: see airport list